Time;durP1;ratioP1;P1;durP2;ratioP2;P2;SDS_P1;SDS_P2;PMS_P1;PMS_P2;Temp;Humidity;BMP_temperature;BMP_pressure;BME280_temperature;BME280_humidity;BME280_pressure;Samples;Min_cycle;Max_cycle;Signal;HPM_P1;HPM_P2
2022/01/01 00:01:29;;;;;;;25.75;14.23;;;;;;;10.21;63.03;100066.91;7657577;32;38931;-76
2022/01/01 00:05:46;;;;;;;21.67;12.70;;;;;;;9.91;64.94;100054.72;7658039;32;40003;-74
2022/01/01 00:10:03;;;;;;;20.58;12.13;;;;;;;10.05;64.81;100053.19;7658135;32;38687;-74
2022/01/01 00:14:20;;;;;;;22.25;11.85;;;;;;;9.94;64.88;100046.03;7644597;32;37208;-76
2022/01/01 00:18:36;;;;;;;20.30;12.27;;;;;;;9.95;64.59;100047.66;7658158;32;39285;-76
2022/01/01 00:22:52;;;;;;;20.48;11.68;;;;;;;9.88;64.78;100056.09;7658026;32;39569;-76
2022/01/01 00:27:08;;;;;;;21.30;11.77;;;;;;;10.31;63.47;100047.91;7657919;32;37827;-75
2022/01/01 00:31:25;;;;;;;21.87;11.57;;;;;;;10.01;64.16;100056.72;7657897;32;37137;-76
2022/01/01 00:35:41;;;;;;;22.90;11.63;;;;;;;10.03;64.67;100049.91;7657868;32;39407;-75
2022/01/01 00:39:57;;;;;;;19.33;12.07;;;;;;;10.26;64.20;100054.16;7657720;32;40745;-75
2022/01/01 00:44:13;;;;;;;26.95;13.82;;;;;;;10.22;63.82;100046.78;7657572;32;38673;-75
2022/01/01 00:48:30;;;;;;;22.25;12.68;;;;;;;10.05;64.42;100049.66;7657673;32;36807;-76
2022/01/01 00:53:06;;;;;;;22.70;12.50;;;;;;;9.63;66.18;100050.44;7657216;32;39654;-75
2022/01/01 00:57:22;;;;;;;21.80;11.77;;;;;;;10.04;64.31;100046.12;7657428;32;40791;-76
2022/01/01 01:01:38;;;;;;;21.45;11.77;;;;;;;9.76;65.43;100056.25;7657171;32;38902;-75
2022/01/01 01:05:54;;;;;;;21.25;12.15;;;;;;;10.07;64.28;100051.03;7657318;32;36884;-75
2022/01/01 01:10:12;;;;;;;20.95;12.82;;;;;;;10.11;63.90;100052.16;7657246;32;38992;-75
2022/01/01 01:14:31;;;;;;;22.02;12.43;;;;;;;10.26;63.12;100056.88;7656968;32;39657;-76
2022/01/01 01:18:47;;;;;;;25.10;14.25;;;;;;;10.08;63.34;100069.00;7656887;32;37865;-76
2022/01/01 01:23:03;;;;;;;23.02;13.55;;;;;;;9.98;63.65;100073.56;7656865;32;38275;-75
2022/01/01 01:27:20;;;;;;;24.50;14.15;;;;;;;10.26;62.62;100075.13;7656778;32;39263;-75
2022/01/01 01:31:35;;;;;;;24.55;14.23;;;;;;;10.24;62.61;100080.81;7656623;32;40840;-75
2022/01/01 01:35:52;;;;;;;23.35;13.00;;;;;;;10.20;62.61;100077.00;7656511;32;37907;-75
2022/01/01 01:40:08;;;;;;;25.08;13.43;;;;;;;10.21;62.39;100095.00;7656452;32;37933;-75
2022/01/01 01:44:26;;;;;;;21.92;13.45;;;;;;;10.25;62.56;100104.28;7656374;32;39003;-75
2022/01/01 01:48:44;;;;;;;22.17;13.68;;;;;;;10.12;63.82;100104.72;7656295;32;38483;-75
2022/01/01 01:53:01;;;;;;;24.00;13.85;;;;;;;9.82;65.04;100117.00;7656182;32;37704;-75
2022/01/01 01:57:18;;;;;;;24.02;13.55;;;;;;;9.71;65.82;100129.72;7642771;32;36768;-75
2022/01/01 02:01:34;;;;;;;27.87;14.35;;;;;;;9.31;67.21;100122.78;7655898;32;40028;-75
2022/01/01 02:05:50;;;;;;;24.63;14.50;;;;;;;9.40;66.74;100117.72;7655788;32;41341;-75
2022/01/01 02:10:07;;;;;;;26.55;14.80;;;;;;;10.01;64.75;100095.66;7655713;32;37603;-76
2022/01/01 02:18:58;;;;;;;29.83;14.45;;;;;;;10.19;64.16;100097.13;7655601;32;40124;-76
2022/01/01 02:23:23;;;;;;;24.27;13.30;;;;;;;10.40;63.14;100100.88;7655381;32;39942;-76
2022/01/01 02:27:39;;;;;;;24.08;14.48;;;;;;;10.56;62.68;100103.69;7646162;32;37997;-75
2022/01/01 02:31:55;;;;;;;26.17;14.45;;;;;;;10.39;62.96;100118.31;7659225;32;37147;-75
2022/01/01 02:36:13;;;;;;;26.75;14.57;;;;;;;10.13;64.03;100115.37;7659395;32;39480;-76
2022/01/01 02:40:29;;;;;;;28.12;16.05;;;;;;;10.43;63.02;100122.13;7659054;32;39824;-74
2022/01/01 02:44:46;;;;;;;26.25;14.95;;;;;;;9.78;64.87;100138.50;7658956;32;38036;-75
2022/01/01 02:49:03;;;;;;;26.77;15.40;;;;;;;9.78;65.43;100119.44;7659202;32;38296;-76
2022/01/01 02:53:19;;;;;;;23.52;14.93;;;;;;;9.96;64.60;100117.41;7659078;32;39388;-76
2022/01/01 02:57:35;;;;;;;29.30;15.35;;;;;;;10.11;63.48;100117.53;7645309;32;40814;-76
2022/01/01 03:01:51;;;;;;;31.17;16.20;;;;;;;10.32;62.86;100125.88;7658405;32;39035;-75
2022/01/01 03:06:08;;;;;;;27.58;15.75;;;;;;;10.41;62.92;100127.03;7658514;32;37195;-75
2022/01/01 03:10:24;;;;;;;27.37;15.77;;;;;;;10.26;63.80;100124.16;7658813;32;39398;-76
2022/01/01 03:14:40;;;;;;;28.60;15.70;;;;;;;10.59;62.82;100127.69;7658823;32;39978;-75
2022/01/01 03:18:56;;;;;;;26.62;14.98;;;;;;;10.34;63.91;100131.91;7658735;32;38896;-75
2022/01/01 03:23:12;;;;;;;27.05;14.43;;;;;;;10.30;64.12;100134.28;7658725;32;38044;-76
2022/01/01 03:27:28;;;;;;;27.98;14.85;;;;;;;10.43;63.88;100138.50;7658396;32;39592;-76
2022/01/01 03:31:44;;;;;;;26.92;15.15;;;;;;;10.14;64.72;100144.25;7658689;32;39793;-76
2022/01/01 03:36:00;;;;;;;25.88;14.10;;;;;;;10.02;65.21;100157.25;7657381;32;37691;-76
2022/01/01 03:40:16;;;;;;;25.00;15.82;;;;;;;10.05;65.13;100153.97;7658696;32;36912;-76
2022/01/01 03:44:32;;;;;;;28.55;14.57;;;;;;;10.03;65.75;100147.97;7658561;32;39011;-75
2022/01/01 03:48:48;;;;;;;25.37;14.27;;;;;;;9.72;66.96;100164.03;7658369;32;39614;-76
2022/01/01 03:53:04;;;;;;;27.83;14.70;;;;;;;10.01;66.39;100177.38;7658394;32;38664;-75
2022/01/01 03:57:21;;;;;;;25.33;14.45;;;;;;;10.00;65.95;100170.28;7658414;32;37766;-76
2022/01/01 04:01:37;;;;;;;28.92;15.60;;;;;;;9.95;66.50;100189.28;7658149;32;40096;-76
2022/01/01 04:05:53;;;;;;;25.45;14.50;;;;;;;10.02;66.55;100198.09;7658060;32;41020;-75
2022/01/01 04:10:10;;;;;;;26.25;14.57;;;;;;;10.07;66.39;100203.59;7658166;32;38767;-75
2022/01/01 04:14:26;;;;;;;23.55;13.88;;;;;;;10.13;66.41;100218.88;7658089;32;37553;-75
2022/01/01 04:18:45;;;;;;;23.00;13.00;;;;;;;10.09;67.00;100206.87;7658174;32;39847;-75
2022/01/01 04:23:06;;;;;;;22.05;12.55;;;;;;;10.44;65.45;100218.38;7658104;32;40452;-75
2022/01/01 04:27:22;;;;;;;20.90;12.23;;;;;;;10.95;63.70;100202.38;7657816;32;38867;-75
2022/01/01 04:31:38;;;;;;;20.10;11.40;;;;;;;10.69;65.12;100202.22;7657812;32;38430;-76
2022/01/01 04:35:54;;;;;;;19.05;10.77;;;;;;;10.95;64.41;100206.97;7657934;32;39851;-76
2022/01/01 04:40:12;;;;;;;20.50;10.82;;;;;;;10.51;66.08;100225.25;7657801;32;39617;-76
2022/01/01 04:44:28;;;;;;;18.83;9.77;;;;;;;10.94;64.72;100216.28;7657690;32;38448;-77
2022/01/01 04:48:45;;;;;;;19.02;8.93;;;;;;;10.33;67.20;100228.34;7657140;32;37947;-76
2022/01/01 04:53:01;;;;;;;19.65;8.88;;;;;;;11.01;64.74;100230.50;7657511;32;40111;-77
2022/01/01 04:57:17;;;;;;;16.27;8.90;;;;;;;11.23;63.98;100224.88;7657469;32;39990;-76
2022/01/01 05:01:33;;;;;;;17.62;8.20;;;;;;;11.34;64.08;100237.47;7657436;32;38025;-76
2022/01/01 05:05:49;;;;;;;19.37;8.13;;;;;;;11.60;63.14;100218.47;7656888;32;38084;-76
2022/01/01 05:10:06;;;;;;;13.57;6.90;;;;;;;11.74;62.61;100221.50;7657402;32;39237;-76
2022/01/01 05:14:22;;;;;;;12.95;6.85;;;;;;;11.89;62.12;100229.75;7657246;32;40781;-76
2022/01/01 05:18:39;;;;;;;13.55;6.97;;;;;;;11.78;62.48;100248.03;7657049;32;38794;-76
2022/01/01 05:22:55;;;;;;;11.00;5.93;;;;;;;12.08;61.68;100249.22;7657242;32;38041;-76
2022/01/01 05:27:11;;;;;;;12.63;6.15;;;;;;;11.83;62.62;100245.31;7656869;32;40245;-76
2022/01/01 05:31:27;;;;;;;7.82;4.70;;;;;;;11.81;62.71;100250.25;7656746;32;40917;-76
2022/01/01 05:35:44;;;;;;;9.15;5.28;;;;;;;11.81;62.76;100244.78;7656652;32;37745;-76
2022/01/01 05:40:00;;;;;;;9.15;4.72;;;;;;;11.84;62.63;100254.31;7656730;32;37400;-76
2022/01/01 05:44:16;;;;;;;9.77;4.90;;;;;;;11.85;62.41;100250.50;7656497;32;40100;-76
2022/01/01 05:48:32;;;;;;;8.30;4.43;;;;;;;12.02;62.05;100256.59;7656389;32;40864;-77
2022/01/01 05:52:49;;;;;;;7.87;3.87;;;;;;;12.03;62.01;100260.16;7656404;32;37682;-77
2022/01/01 05:57:06;;;;;;;11.25;4.05;;;;;;;12.54;60.36;100260.22;7656179;32;37176;-77
2022/01/01 06:01:22;;;;;;;10.35;4.43;;;;;;;12.20;61.95;100265.38;7658473;32;40145;-77
2022/01/01 06:05:38;;;;;;;10.52;4.35;;;;;;;12.67;60.26;100286.19;7659302;32;39992;-78
2022/01/01 06:09:54;;;;;;;8.63;3.58;;;;;;;12.85;59.61;100275.78;7659423;32;38140;-76
2022/01/01 06:14:10;;;;;;;7.75;3.80;;;;;;;12.67;60.07;100269.75;7659766;32;36856;-76
2022/01/01 06:18:27;;;;;;;6.43;3.60;;;;;;;12.34;61.19;100280.16;7659696;32;39262;-76
2022/01/01 06:22:43;;;;;;;6.50;3.28;;;;;;;12.38;61.11;100289.47;7659533;32;39919;-76
2022/01/01 06:26:59;;;;;;;6.53;3.65;;;;;;;12.29;61.15;100285.59;7659396;32;38038;-77
2022/01/01 06:31:15;;;;;;;5.62;3.05;;;;;;;12.55;60.76;100286.44;7659291;32;36998;-76
2022/01/01 06:35:32;;;;;;;6.37;3.42;;;;;;;13.09;58.94;100276.84;7659428;32;40211;-76
2022/01/01 06:39:49;;;;;;;5.85;2.92;;;;;;;13.14;58.61;100285.06;7659232;32;39956;-76
2022/01/01 06:44:05;;;;;;;7.00;2.95;;;;;;;13.06;58.78;100288.34;7659211;32;36873;-77
2022/01/01 06:48:21;;;;;;;5.65;3.17;;;;;;;13.00;58.95;100281.22;7659149;32;37868;-76
2022/01/01 06:52:45;;;;;;;5.95;2.97;;;;;;;12.56;60.18;100293.56;7659207;32;40117;-76
2022/01/01 06:57:01;;;;;;;5.40;2.92;;;;;;;12.29;61.53;100290.25;7659158;32;39978;-77
2022/01/01 07:01:17;;;;;;;6.18;2.90;;;;;;;12.72;59.91;100293.56;7658911;32;38189;-76
2022/01/01 07:05:34;;;;;;;6.82;2.90;;;;;;;12.36;60.78;100302.56;7658801;32;37265;-76
2022/01/01 07:09:50;;;;;;;7.50;3.10;;;;;;;12.87;59.34;100311.91;7658896;32;39513;-76
2022/01/01 07:14:06;;;;;;;7.55;3.08;;;;;;;12.74;59.79;100303.12;7659025;32;40552;-77
2022/01/01 07:18:22;;;;;;;5.65;3.12;;;;;;;13.15;58.66;100305.84;7658872;32;38655;-77
2022/01/01 07:22:45;;;;;;;5.07;2.78;;;;;;;12.57;60.04;100308.91;7658881;32;37872;-75
2022/01/01 07:27:01;;;;;;;;;;;;;;;12.86;60.40;100321.19;7659171;32;39241;-71
2022/01/01 07:31:19;;;;;;;5.57;2.58;;;;;;;13.03;61.69;100310.78;7658941;32;40093;-72
2022/01/01 07:35:36;;;;;;;5.87;2.58;;;;;;;12.97;60.22;100303.69;7658725;32;38798;-77
2022/01/01 07:39:52;;;;;;;3.50;2.28;;;;;;;13.11;58.67;100312.16;7658786;32;37556;-75
2022/01/01 07:44:10;;;;;;;6.07;2.87;;;;;;;12.92;59.10;100323.66;7658711;32;39013;-75
2022/01/01 07:48:26;;;;;;;4.97;2.90;;;;;;;12.74;59.84;100316.81;7658643;32;39636;-75
2022/01/01 07:52:42;;;;;;;4.53;2.58;;;;;;;13.63;57.24;100308.22;7658506;32;37645;-76
2022/01/01 07:56:58;;;;;;;7.03;2.87;;;;;;;13.13;58.74;100315.44;7658615;32;36744;-76
2022/01/01 08:01:15;;;;;;;7.40;2.33;;;;;;;12.94;60.23;100306.97;7658628;32;39816;-76
2022/01/01 08:05:31;;;;;;;4.55;2.40;;;;;;;13.19;59.16;100313.50;7658210;32;40086;-77
2022/01/01 08:09:48;;;;;;;5.80;2.90;;;;;;;12.86;60.12;100315.72;7658430;32;38524;-78
2022/01/01 08:14:05;;;;;;;4.68;3.00;;;;;;;12.93;59.61;100325.28;7658351;32;37623;-76
2022/01/01 08:18:22;;;;;;;5.32;2.87;;;;;;;13.15;59.66;100330.47;7658280;32;39322;-77
2022/01/01 08:22:38;;;;;;;6.97;3.65;;;;;;;13.25;58.76;100351.56;7657187;32;40186;-77
2022/01/01 08:26:55;;;;;;;7.05;3.10;;;;;;;13.09;59.51;100345.28;7658041;32;37748;-77
2022/01/01 08:31:11;;;;;;;7.85;3.58;;;;;;;13.71;58.25;100342.44;7658190;32;37187;-76
2022/01/01 08:35:29;;;;;;;5.70;3.00;;;;;;;14.02;57.06;100342.31;7658164;32;39932;-77
2022/01/01 08:39:45;;;;;;;6.15;3.10;;;;;;;14.25;56.27;100335.34;7658061;32;39871;-76
2022/01/01 08:44:01;;;;;;;6.53;3.22;;;;;;;14.39;55.56;100330.06;7657968;32;37994;-77
2022/01/01 08:48:17;;;;;;;5.35;2.67;;;;;;;14.86;54.65;100334.12;7657836;32;36541;-77
2022/01/01 08:52:33;;;;;;;5.20;2.70;;;;;;;14.46;55.57;100347.81;7657733;32;39660;-76
2022/01/01 08:56:49;;;;;;;3.80;2.53;;;;;;;14.14;55.88;100362.00;7657477;32;40730;-77
2022/01/01 09:01:06;;;;;;;3.40;2.53;;;;;;;14.19;55.78;100353.72;7657302;32;37922;-77
2022/01/01 09:05:25;;;;;;;5.60;2.40;;;;;;;13.84;57.52;100363.75;7657350;32;37257;-78
2022/01/01 09:09:41;;;;;;;6.28;2.78;;;;;;;13.98;57.21;100358.50;7657030;32;41109;-78
2022/01/01 09:13:57;;;;;;;7.00;3.03;;;;;;;14.05;56.63;100364.50;7657087;32;40031;-77
2022/01/01 09:18:13;;;;;;;6.53;3.00;;;;;;;13.40;58.31;100374.56;7657045;32;37921;-77
2022/01/01 09:22:29;;;;;;;4.03;2.75;;;;;;;13.73;57.68;100366.81;7656906;32;37017;-77
2022/01/01 09:26:45;;;;;;;5.40;2.97;;;;;;;13.67;58.18;100375.03;7656922;32;39351;-77
2022/01/01 09:31:02;;;;;;;4.53;3.10;;;;;;;13.70;57.46;100387.38;7656615;32;40784;-76
2022/01/01 09:35:19;;;;;;;4.03;2.53;;;;;;;12.94;60.19;100378.12;7658949;32;38497;-76
2022/01/01 09:39:35;;;;;;;4.90;2.80;;;;;;;13.78;57.66;100375.84;7660293;32;37849;-76
2022/01/01 09:43:54;;;;;;;5.95;2.87;;;;;;;13.64;58.13;100375.63;7660258;32;39403;-78
2022/01/01 09:48:10;;;;;;;6.37;3.05;;;;;;;13.59;58.73;100383.00;7646632;32;40821;-73
2022/01/01 09:52:27;;;;;;;3.62;2.37;;;;;;;13.35;58.53;100383.63;7659560;32;38055;-76
2022/01/01 09:56:43;;;;;;;4.82;2.85;;;;;;;13.51;58.89;100387.97;7659940;32;37265;-75
2022/01/01 10:01:02;;;;;;;8.07;3.67;;;;;;;13.86;57.56;100397.19;7659914;32;39363;-75
2022/01/01 10:05:18;;;;;;;5.72;3.10;;;;;;;13.60;57.90;100390.16;7659770;32;40683;-75
2022/01/01 10:09:39;;;;;;;8.50;3.72;;;;;;;13.57;57.95;100391.50;7659491;32;37666;-77
2022/01/01 10:13:55;;;;;;;6.03;3.62;;;;;;;13.46;58.47;100390.72;7659718;32;36881;-74
2022/01/01 10:18:11;;;;;;;7.30;3.45;;;;;;;13.39;59.64;100390.19;7659694;32;40051;-74
2022/01/01 10:22:28;;;;;;;8.50;4.18;;;;;;;13.73;58.70;100386.84;7659578;32;40843;-74
2022/01/01 10:31:19;;;;;;;10.10;4.57;;;;;;;13.32;59.32;100395.94;7659524;32;37282;-75
2022/01/01 10:35:47;;;;;;;7.32;3.87;;;;;;;13.41;59.59;100398.94;7645970;32;40269;-74
2022/01/01 10:40:03;;;;;;;5.72;2.83;;;;;;;13.47;59.51;100408.81;7659407;32;40204;-75
2022/01/01 10:44:39;;;;;;;6.62;3.10;;;;;;;12.73;62.02;100426.53;7659389;32;38830;-75
2022/01/01 10:48:58;;;;;;;9.25;3.42;;;;;;;13.28;60.28;100422.22;7659156;32;37879;-75
2022/01/01 10:53:22;;;;;;;6.47;3.58;;;;;;;12.92;61.69;100421.38;7659177;32;39353;-74
2022/01/01 10:57:51;;;;;;;8.25;4.37;;;;;;;13.10;60.82;100423.56;7659333;32;40147;-73
2022/01/01 11:02:08;;;;;;;6.37;3.03;;;;;;;13.46;59.62;100409.87;7659100;32;38002;-74
2022/01/01 11:06:24;;;;;;;4.55;2.80;;;;;;;13.16;60.69;100402.50;7658862;32;37181;-74
2022/01/01 11:10:42;;;;;;;7.80;3.50;;;;;;;13.27;60.15;100398.66;7645413;32;39339;-74
2022/01/01 11:15:01;;;;;;;10.27;3.65;;;;;;;13.03;61.48;100397.56;7645067;32;40782;-74
2022/01/01 11:19:17;;;;;;;7.43;3.83;;;;;;;13.23;60.82;100380.28;7658596;32;37962;-74
2022/01/01 11:23:34;;;;;;;7.30;2.78;;;;;;;13.15;60.83;100387.97;7645427;32;37258;-76
2022/01/01 11:27:53;;;;;;;4.03;3.05;;;;;;;13.19;61.30;100390.16;7658867;32;39776;-82
2022/01/01 11:32:11;;;;;;;8.02;3.08;;;;;;;13.23;61.51;100385.78;7659030;32;39966;-83
2022/01/01 11:36:31;;;;;;;6.90;2.92;;;;;;;13.46;60.44;100384.41;7645482;32;38772;-81
2022/01/01 11:41:06;;;;;;;5.82;2.60;;;;;;;13.45;60.58;100382.78;7658879;32;36767;-82
2022/01/01 11:45:41;;;;;;;6.25;2.92;;;;;;;13.70;59.96;100390.13;7646688;32;38111;-81
2022/01/01 11:49:58;;;;;;;6.03;2.92;;;;;;;13.59;60.27;100392.06;7658672;32;40062;-82
2022/01/01 11:54:32;;;;;;;8.73;2.87;;;;;;;13.58;60.08;100398.62;7658414;32;38803;-81
2022/01/01 11:58:50;;;;;;;5.57;2.80;;;;;;;13.37;60.55;100403.34;7657125;32;36868;-80
2022/01/01 12:03:13;;;;;;;5.60;2.95;;;;;;;13.06;61.84;100417.00;7656580;32;40025;-81
2022/01/01 12:07:30;;;;;;;5.40;3.25;;;;;;;13.32;61.19;100419.78;7657637;32;39927;-80
2022/01/01 12:11:55;;;;;;;3.83;2.17;;;;;;;13.12;61.71;100424.13;7657742;32;37999;-81
2022/01/01 12:19:07;;;;;;;3.58;2.50;;;;;;;13.26;61.28;100429.87;7832457;32;208406;-81
2022/01/01 12:23:25;;;;;;;6.18;3.40;;;;;;;13.08;62.00;100425.75;7811658;32;39767;-82
2022/01/01 12:27:51;;;;;;;9.20;3.70;;;;;;;13.76;59.77;100432.84;7798275;32;37880;-81
2022/01/01 12:32:08;;;;;;;6.72;3.60;;;;;;;13.55;60.74;100436.72;7799027;32;36916;-82
2022/01/01 12:36:27;;;;;;;7.57;3.83;;;;;;;14.04;59.23;100434.16;7812515;32;39644;-81
2022/01/01 12:41:03;;;;;;;7.80;3.45;;;;;;;14.18;58.50;100431.62;7798656;32;40831;-81
2022/01/01 12:45:20;;;;;;;9.52;4.22;;;;;;;14.09;58.51;100447.84;7812429;32;37924;-82
2022/01/01 12:49:39;;;;;;;7.72;3.80;;;;;;;14.01;59.26;100445.66;7798609;32;37575;-81
2022/01/01 12:53:59;;;;;;;6.90;3.58;;;;;;;14.17;58.58;100457.41;7798462;32;39067;-82
2022/01/01 12:58:21;;;;;;;6.32;3.12;;;;;;;13.34;61.04;100458.66;7812176;32;41598;-81
2022/01/01 13:02:37;;;;;;;8.23;3.28;;;;;;;13.76;59.79;100468.47;7798291;32;38823;-82
2022/01/01 13:06:57;;;;;;;6.20;3.45;;;;;;;13.48;61.25;100467.94;7798255;32;36919;-80
2022/01/01 13:11:18;;;;;;;6.35;3.37;;;;;;;14.04;59.13;100469.78;7811804;32;39414;-81
2022/01/01 13:15:37;;;;;;;8.18;3.92;;;;;;;14.14;58.58;100470.84;7811784;32;40837;-83
2022/01/01 13:19:54;;;;;;;7.30;4.35;;;;;;;13.72;60.05;100475.59;7811905;32;37923;-81
2022/01/01 13:24:10;;;;;;;7.18;4.28;;;;;;;13.92;59.41;100490.38;7812028;32;36913;-82
2022/01/01 13:28:29;;;;;;;7.28;3.85;;;;;;;13.86;59.42;100481.34;7802743;32;38843;-82
2022/01/01 13:32:47;;;;;;;6.80;3.37;;;;;;;14.25;58.39;100494.41;7779795;32;39937;-80
2022/01/01 13:37:07;;;;;;;8.27;3.97;;;;;;;13.52;60.44;100498.34;7779758;32;37968;-81
2022/01/01 13:41:31;;;;;;;6.03;3.55;;;;;;;13.44;60.87;100497.00;7793473;32;37690;-82
2022/01/01 13:45:47;;;;;;;7.50;3.10;;;;;;;14.00;59.06;100495.28;7793352;32;39233;-81
2022/01/01 13:50:17;;;;;;;4.10;2.83;;;;;;;14.35;57.86;100490.78;7779773;32;38930;-82
2022/01/01 13:54:38;;;;;;;7.75;3.75;;;;;;;13.81;58.87;100509.56;7793351;32;38078;-83
2022/01/01 13:58:56;;;;;;;7.20;3.08;;;;;;;14.34;57.14;100508.37;7793250;32;37451;-84
2022/01/01 14:03:12;;;;;;;5.65;3.50;;;;;;;13.70;59.33;100516.16;7793404;32;38887;-84
2022/01/01 14:07:30;;;;;;;5.90;3.15;;;;;;;14.10;58.17;100519.94;7779294;32;40873;-83
2022/01/01 14:11:46;;;;;;;6.30;2.92;;;;;;;13.98;57.99;100522.16;7779087;32;37939;-83
2022/01/01 14:16:15;;;;;;;7.03;3.03;;;;;;;13.81;58.25;100533.41;7792739;32;37569;-83
2022/01/01 14:20:49;;;;;;;7.87;3.08;;;;;;;14.34;57.03;100539.34;7793090;32;39173;-85
2022/01/01 14:25:08;;;;;;;7.95;3.33;;;;;;;14.78;56.34;100546.91;7793011;32;40085;-83
2022/01/01 14:29:25;;;;;;;6.75;3.30;;;;;;;14.87;55.12;100549.91;7777235;32;37707;-80
2022/01/01 14:33:42;;;;;;;12.82;7.78;;;;;;;14.68;55.38;100549.69;7322920;32;38259;-82
2022/01/01 14:37:58;;;;;;;6.97;4.07;;;;;;;15.07;54.31;100553.62;7775779;32;38711;-82
2022/01/01 14:42:14;;;;;;;7.68;4.90;;;;;;;14.84;54.86;100550.44;7763738;32;40742;-82
2022/01/01 14:46:32;;;;;;;5.87;3.65;;;;;;;14.65;55.50;100559.31;7765025;32;37653;-82
2022/01/01 14:50:52;;;;;;;5.03;2.90;;;;;;;14.77;55.04;100566.41;7769462;32;36901;-83
2022/01/01 14:55:25;;;;;;;7.35;3.67;;;;;;;14.53;55.73;100566.19;7778558;32;38848;-83
2022/01/01 14:59:44;;;;;;;7.00;4.00;;;;;;;14.35;56.39;100570.34;7791868;32;39992;-83
2022/01/01 15:04:01;;;;;;;5.93;3.87;;;;;;;14.69;55.32;100577.97;7791057;32;37906;-83
2022/01/01 15:08:21;;;;;;;4.78;3.12;;;;;;;14.69;55.42;100578.78;7791604;32;37497;-84
2022/01/01 15:12:49;;;;;;;6.78;2.80;;;;;;;14.27;56.41;100569.81;7791379;32;39414;-84
2022/01/01 15:17:15;;;;;;;7.50;3.27;;;;;;;14.00;57.77;100575.59;7791378;32;39761;-81
2022/01/01 15:21:54;;;;;;;5.97;3.22;;;;;;;13.66;59.24;100583.56;7790605;32;37874;-79
2022/01/01 15:26:18;;;;;;;6.55;3.20;;;;;;;13.29;60.62;100590.06;7791604;32;36946;-83
2022/01/01 15:30:48;;;;;;;5.07;3.00;;;;;;;13.65;59.24;100584.66;7777958;32;39974;-83
2022/01/01 15:39:43;;;;;;;5.50;3.60;;;;;;;13.31;60.69;100601.56;7791314;32;38593;-83
2022/01/01 15:43:59;;;;;;;7.75;3.90;;;;;;;13.59;59.96;100602.19;7790615;32;36946;-83
2022/01/01 15:48:22;;;;;;;6.97;4.05;;;;;;;14.03;58.47;100598.91;7791439;32;37501;-83
2022/01/01 15:52:55;;;;;;;8.05;4.22;;;;;;;14.26;57.73;100594.75;7790023;32;40766;-82
2022/01/01 15:57:30;;;;;;;11.82;5.18;;;;;;;14.22;57.78;100602.72;7791317;32;37965;-84
2022/01/01 16:02:19;;;;;;;11.43;5.68;;;;;;;14.48;57.00;100601.88;7791152;32;36981;-82
2022/01/01 16:06:38;;;;;;;11.27;6.45;;;;;;;14.21;57.67;100603.00;7778727;32;39194;-84
2022/01/01 16:10:57;;;;;;;6.90;3.40;;;;;;;14.23;57.60;100601.62;7790679;32;39891;-84
2022/01/01 16:15:14;;;;;;;6.03;3.53;;;;;;;14.14;57.87;100600.53;7789934;32;38247;-84
2022/01/01 16:19:31;;;;;;;6.53;3.58;;;;;;;14.15;58.02;100604.94;7771081;32;37607;-83
2022/01/01 16:23:47;;;;;;;6.68;3.60;;;;;;;14.34;57.31;100610.66;7762725;32;39684;-83
2022/01/01 16:28:04;;;;;;;6.70;3.75;;;;;;;14.20;57.67;100607.66;7763302;32;40886;-83
2022/01/01 16:32:25;;;;;;;6.85;3.45;;;;;;;14.32;57.29;100618.34;7776561;32;36552;-82
2022/01/01 16:36:44;;;;;;;8.38;4.10;;;;;;;13.98;58.53;100605.22;7762451;32;37553;-83
2022/01/01 16:41:34;;;;;;;8.82;4.12;;;;;;;13.95;58.31;100599.47;7762906;32;39847;-84
2022/01/01 16:45:55;;;;;;;10.38;3.83;;;;;;;13.90;58.77;100609.34;7762157;32;38405;-83
2022/01/01 16:50:16;;;;;;;7.62;4.20;;;;;;;13.96;58.61;100612.91;7762220;32;37989;-83
2022/01/01 16:54:34;;;;;;;7.12;3.67;;;;;;;13.97;58.65;100616.44;7767177;32;36062;-83
2022/01/01 16:58:50;;;;;;;5.78;3.97;;;;;;;13.99;58.40;100611.53;7775450;32;39586;-82
2022/01/01 17:03:08;;;;;;;6.93;3.60;;;;;;;13.92;58.79;100622.78;7790593;32;40728;-82
2022/01/01 17:07:26;;;;;;;8.73;4.28;;;;;;;14.00;58.46;100630.44;7792648;32;38041;-84
2022/01/01 17:11:42;;;;;;;9.25;4.12;;;;;;;14.15;58.03;100626.87;7778933;32;37699;-84
2022/01/01 17:16:24;;;;;;;8.00;3.50;;;;;;;14.18;57.75;100637.28;7792797;32;39281;-83
2022/01/01 17:20:48;;;;;;;8.07;4.00;;;;;;;14.04;58.34;100625.25;7792724;32;39699;-82
2022/01/01 17:25:10;;;;;;;10.50;5.00;;;;;;;14.14;57.76;100633.44;7792991;32;37588;-83
2022/01/01 17:29:27;;;;;;;9.43;4.93;;;;;;;14.11;57.92;100633.16;7792754;32;36909;-82
2022/01/01 17:42:41;;;;;;;9.40;4.45;;;;;;;14.14;57.74;100630.69;7792529;32;37941;-82
2022/01/01 17:46:58;;;;;;;7.25;3.72;;;;;;;14.19;57.57;100627.13;7792754;32;37181;-82
2022/01/01 17:51:16;;;;;;;7.47;3.67;;;;;;;14.17;57.62;100630.16;7792739;32;38974;-82
2022/01/01 17:55:32;;;;;;;7.80;3.95;;;;;;;14.13;57.54;100629.06;7779317;32;40748;-82
2022/01/01 17:59:48;;;;;;;10.23;5.40;;;;;;;14.13;57.63;100629.06;7792064;32;37929;-83
2022/01/01 18:04:05;;;;;;;10.20;3.97;;;;;;;13.98;58.02;100631.81;7792877;32;36767;-83
2022/01/01 18:08:24;;;;;;;8.93;4.40;;;;;;;14.08;57.76;100620.84;7777676;32;39333;-83
2022/01/01 18:12:46;;;;;;;8.13;4.22;;;;;;;13.85;58.42;100617.56;7793280;32;40695;-83
2022/01/01 18:17:03;;;;;;;11.45;5.00;;;;;;;13.86;58.30;100610.97;7717977;32;37711;-83
2022/01/01 18:21:21;;;;;;;10.68;5.37;;;;;;;13.92;58.10;100602.75;7711145;32;37698;-83
2022/01/01 18:25:40;;;;;;;12.10;4.75;;;;;;;13.65;58.95;100601.09;7718642;32;39881;-83
2022/01/01 18:29:58;;;;;;;8.55;4.30;;;;;;;13.68;59.06;100606.03;7711990;32;39786;-84
2022/01/01 18:34:14;;;;;;;8.60;4.57;;;;;;;13.62;58.87;100612.59;7709729;32;38730;-82
2022/01/01 18:38:34;;;;;;;10.00;4.65;;;;;;;13.62;58.79;100618.06;7711550;32;36595;-82
2022/01/01 18:42:51;;;;;;;9.27;4.60;;;;;;;13.46;59.27;100626.25;7711564;32;39139;-84
2022/01/01 18:47:11;;;;;;;10.18;4.68;;;;;;;13.08;60.32;100642.00;7711222;32;39998;-83
2022/01/01 18:51:33;;;;;;;8.68;4.47;;;;;;;13.05;60.65;100642.53;7710837;32;39252;-84
2022/01/01 18:55:50;;;;;;;8.55;4.05;;;;;;;13.16;60.17;100627.00;7719071;32;36792;-83
2022/01/01 19:00:11;;;;;;;8.82;4.10;;;;;;;13.36;59.57;100648.16;7736743;32;39704;-83
2022/01/01 19:04:31;;;;;;;6.75;4.20;;;;;;;13.38;59.51;100645.97;7737899;32;40834;-82
2022/01/01 19:08:55;;;;;;;11.43;5.40;;;;;;;13.49;59.23;100642.16;7737719;32;38029;-84
2022/01/01 19:13:18;;;;;;;12.80;5.87;;;;;;;12.95;61.01;100653.44;7737394;32;37512;-83
2022/01/01 19:17:37;;;;;;;10.68;6.22;;;;;;;13.16;60.28;100643.41;7736660;32;39087;-83
2022/01/01 19:21:56;;;;;;;10.73;6.07;;;;;;;13.22;59.96;100644.25;7710510;32;40860;-83
2022/01/01 19:26:17;;;;;;;9.77;5.57;;;;;;;13.09;60.40;100648.28;7710559;32;37724;-83
2022/01/01 19:30:36;;;;;;;10.63;5.25;;;;;;;13.18;60.09;100624.81;7711017;32;36929;-84
2022/01/01 19:34:56;;;;;;;10.45;4.68;;;;;;;13.13;59.80;100631.06;7703078;32;39372;-83
2022/01/01 19:39:16;;;;;;;9.88;4.95;;;;;;;12.77;60.98;100630.91;7710836;32;39958;-83
2022/01/01 19:43:45;;;;;;;8.93;4.20;;;;;;;12.69;61.22;100625.94;7710205;32;38573;-83
2022/01/01 19:48:05;;;;;;;8.88;4.68;;;;;;;12.69;61.01;100622.38;7711247;32;35118;-82
2022/01/01 19:52:21;;;;;;;8.75;4.37;;;;;;;12.55;61.63;100636.53;7710106;32;39363;-83
2022/01/01 19:56:37;;;;;;;12.52;5.03;;;;;;;12.39;62.22;100646.56;7710630;32;40751;-83
2022/01/01 20:00:53;;;;;;;11.40;4.80;;;;;;;12.26;62.37;100646.19;7710251;32;38790;-82
2022/01/01 20:05:12;;;;;;;11.23;4.68;;;;;;;12.41;61.62;100649.03;7709783;32;37797;-82
2022/01/01 20:09:29;;;;;;;8.80;4.35;;;;;;;12.08;62.57;100667.37;7710785;32;37195;-83
2022/01/01 20:13:45;;;;;;;8.73;5.00;;;;;;;12.08;62.97;100669.28;7709438;32;40862;-83
2022/01/01 20:18:04;;;;;;;10.00;5.18;;;;;;;11.76;63.51;100661.84;7727001;32;37990;-82
2022/01/01 20:22:26;;;;;;;10.48;5.50;;;;;;;12.11;62.55;100668.78;7736664;32;37015;-82